createdAt,value
2017-12-12T00:00:23.008Z,99.99
2017-12-12T00:01:23.020Z,99.99
2017-12-12T00:02:23.059Z,99.99
2017-12-12T00:03:23.064Z,99.99
2017-12-12T00:04:23.070Z,99.99
2017-12-12T00:05:23.085Z,99.99
2017-12-12T00:06:23.097Z,99.99
2017-12-12T00:07:23.138Z,99.99
2017-12-12T00:08:23.138Z,99.99
2017-12-12T00:09:23.165Z,99.99
2017-12-12T00:10:23.164Z,99.99
2017-12-12T00:11:23.177Z,99.99
2017-12-12T00:12:23.211Z,99.99
2017-12-12T00:13:22.968Z,99.99
2017-12-12T00:14:23.261Z,99.99
2017-12-12T00:15:37.945Z,99.99
2017-12-12T00:16:23.269Z,99.99
2017-12-12T00:17:23.043Z,99.99
2017-12-12T00:18:23.306Z,99.99
2017-12-12T00:19:23.316Z,99.99
2017-12-12T00:20:23.359Z,99.99
2017-12-12T00:21:23.376Z,99.99
2017-12-12T00:22:23.392Z,99.99
2017-12-12T00:23:23.414Z,99.99
2017-12-12T00:24:23.431Z,99.99
2017-12-12T00:25:23.426Z,99.99
2017-12-12T00:26:23.469Z,99.99
2017-12-12T00:28:23.496Z,99.99
2017-12-12T00:29:23.491Z,99.99
2017-12-12T00:30:38.217Z,99.99
2017-12-12T00:31:23.525Z,99.99
2017-12-12T00:32:23.556Z,99.99
2017-12-12T00:33:23.559Z,99.99
2017-12-12T00:34:23.577Z,99.99
2017-12-12T00:35:23.595Z,99.99
2017-12-12T00:36:23.634Z,99.99
2017-12-12T00:37:23.649Z,99.99
2017-12-12T00:38:23.663Z,99.99
2017-12-12T00:39:23.681Z,99.99
2017-12-12T00:40:23.694Z,99.99
2017-12-12T00:41:23.722Z,99.99
2017-12-12T00:42:23.732Z,99.99
2017-12-12T00:43:23.728Z,99.99
2017-12-12T00:44:23.776Z,99.99
2017-12-12T00:45:23.784Z,99.99
2017-12-12T00:46:23.792Z,99.99
2017-12-12T00:47:23.829Z,99.99
2017-12-12T00:48:23.838Z,99.99
2017-12-12T00:49:23.853Z,99.99
2017-12-12T00:50:23.869Z,99.99
2017-12-12T00:51:23.878Z,99.99
2017-12-12T00:52:23.881Z,99.99
2017-12-12T00:53:23.914Z,99.99
2017-12-12T00:54:23.918Z,99.99
2017-12-12T00:55:23.944Z,99.99
2017-12-12T00:56:23.956Z,99.99
2017-12-12T00:58:23.990Z,99.99
2017-12-12T00:59:24.004Z,99.99
2017-12-12T01:00:24.040Z,99.99
2017-12-12T01:01:24.054Z,99.99
2017-12-12T01:02:38.730Z,99.99
2017-12-12T01:03:24.079Z,99.99
2017-12-12T01:04:24.114Z,99.99
2017-12-12T01:05:24.112Z,99.99
2017-12-12T01:06:24.139Z,99.99
2017-12-12T01:07:24.162Z,99.99
2017-12-12T01:08:24.171Z,99.99
2017-12-12T01:09:24.182Z,99.99
2017-12-12T01:10:24.185Z,99.99
2017-12-12T01:11:24.219Z,99.99
2017-12-12T01:12:24.241Z,99.99
2017-12-12T01:13:23.993Z,99.99
2017-12-12T01:15:24.272Z,99.99
2017-12-12T01:16:24.290Z,99.99
2017-12-12T01:17:24.339Z,99.99
2017-12-12T01:18:39.008Z,99.99
2017-12-12T01:19:24.359Z,99.99
2017-12-12T01:20:24.361Z,99.99
2017-12-12T01:21:24.401Z,99.99
2017-12-12T01:22:24.513Z,99.99
2017-12-12T01:24:24.439Z,99.99
2017-12-12T01:25:24.464Z,99.99
2017-12-12T01:26:24.480Z,99.99
2017-12-12T01:28:24.502Z,99.99
2017-12-12T01:30:24.539Z,99.99
2017-12-12T01:31:24.554Z,99.99
2017-12-12T01:32:24.573Z,99.99
2017-12-12T01:33:24.579Z,99.99
2017-12-12T01:34:39.270Z,99.99
2017-12-12T01:35:24.620Z,99.99
2017-12-12T01:36:24.637Z,99.99
2017-12-12T01:37:24.396Z,99.99
2017-12-12T01:38:24.683Z,99.99
2017-12-12T01:39:24.690Z,99.99
2017-12-12T01:40:24.728Z,99.99
2017-12-12T01:41:24.742Z,99.99
2017-12-12T01:43:24.755Z,99.99
2017-12-12T01:44:24.773Z,99.99
2017-12-12T01:45:24.810Z,99.99
2017-12-12T01:46:24.827Z,99.99
2017-12-12T01:47:24.829Z,99.99
2017-12-12T01:48:24.843Z,99.99
2017-12-12T01:49:24.868Z,99.99
2017-12-12T01:50:39.555Z,99.99
2017-12-12T01:51:24.886Z,99.99
2017-12-12T01:52:24.934Z,99.99
2017-12-12T01:53:24.681Z,99.99
2017-12-12T01:54:24.958Z,99.99
2017-12-12T01:55:24.969Z,99.99
2017-12-12T01:56:24.973Z,99.99
2017-12-12T01:57:24.746Z,99.99
2017-12-12T01:58:25.014Z,99.99
2017-12-12T01:59:25.026Z,99.99
2017-12-12T02:00:24.807Z,99.99
2017-12-12T02:01:25.056Z,99.99
2017-12-12T02:02:25.081Z,99.99
2017-12-12T02:03:25.100Z,99.99
2017-12-12T02:04:25.122Z,99.99
2017-12-12T02:05:39.803Z,99.99
2017-12-12T02:06:25.146Z,99.99
2017-12-12T02:07:25.164Z,99.99
2017-12-12T02:08:25.209Z,99.99
2017-12-12T02:09:25.216Z,99.99
2017-12-12T02:10:25.221Z,99.99
2017-12-12T02:11:25.247Z,99.99
2017-12-12T02:12:25.254Z,99.99
2017-12-12T02:13:25.270Z,99.99
2017-12-12T02:14:25.298Z,99.99
2017-12-12T02:16:25.340Z,99.99
2017-12-12T02:17:25.356Z,99.99
2017-12-12T02:18:25.368Z,99.99
2017-12-12T02:19:25.377Z,99.99
2017-12-12T02:20:25.406Z,99.99
2017-12-12T02:21:25.411Z,99.99
2017-12-12T02:22:25.437Z,99.99
2017-12-12T02:23:25.444Z,99.99
2017-12-12T02:24:25.535Z,99.99
2017-12-12T02:25:25.470Z,99.99
2017-12-12T02:26:25.491Z,99.99
2017-12-12T02:27:25.507Z,99.99
2017-12-12T02:29:25.537Z,99.99
2017-12-12T02:30:25.578Z,99.99
2017-12-12T02:31:25.334Z,99.99
2017-12-12T02:32:25.597Z,99.99
2017-12-12T02:33:25.626Z,99.99
2017-12-12T02:34:25.648Z,99.99
2017-12-12T02:35:25.653Z,99.99
2017-12-12T02:36:25.690Z,99.99
2017-12-12T02:37:40.356Z,99.99
2017-12-12T02:38:25.696Z,99.99
2017-12-12T02:39:25.737Z,99.99
2017-12-12T02:41:25.764Z,99.99
2017-12-12T02:42:25.790Z,99.99
2017-12-12T02:43:25.811Z,99.99
2017-12-12T02:44:25.802Z,99.99
2017-12-12T02:45:25.834Z,99.99
2017-12-12T02:46:25.869Z,99.99
2017-12-12T02:47:25.863Z,99.99
2017-12-12T02:48:25.906Z,99.99
2017-12-12T02:49:25.907Z,99.99
2017-12-12T02:50:25.920Z,99.99
2017-12-12T02:51:25.943Z,99.99
2017-12-12T02:52:25.935Z,99.99
2017-12-12T02:53:40.630Z,99.99
2017-12-12T02:54:25.992Z,99.99
2017-12-12T02:55:26.012Z,99.99
2017-12-12T02:56:26.033Z,99.99
2017-12-12T02:57:26.020Z,99.99
2017-12-12T02:58:26.059Z,99.99
2017-12-12T02:59:26.078Z,99.99
2017-12-12T03:00:26.101Z,99.99
2017-12-12T03:01:26.119Z,99.99
2017-12-12T03:02:26.108Z,99.99
2017-12-12T03:03:26.132Z,99.99
2017-12-12T03:04:26.165Z,99.99
2017-12-12T03:05:25.909Z,99.99
2017-12-12T03:07:26.197Z,99.99
2017-12-12T03:08:26.242Z,99.99
2017-12-12T03:09:40.900Z,99.99
2017-12-12T03:10:26.266Z,99.99
2017-12-12T03:11:26.286Z,99.99
2017-12-12T03:12:26.303Z,99.99
2017-12-12T03:14:26.330Z,99.99
2017-12-12T03:15:26.328Z,99.99
2017-12-12T03:16:26.365Z,99.99
2017-12-12T03:17:26.382Z,99.99
2017-12-12T03:18:26.409Z,99.99
2017-12-12T03:19:26.415Z,99.99
2017-12-12T03:20:26.438Z,99.99
2017-12-12T03:21:26.429Z,99.99
2017-12-12T03:22:26.455Z,99.99
2017-12-12T03:23:26.493Z,99.99
2017-12-12T03:24:26.496Z,99.99
2017-12-12T03:25:41.184Z,99.99
2017-12-12T03:26:26.524Z,99.99
2017-12-12T03:27:26.562Z,99.99
2017-12-12T03:28:26.567Z,99.99
2017-12-12T03:29:26.601Z,99.99
2017-12-12T03:30:26.354Z,99.99
2017-12-12T03:31:26.613Z,99.99
2017-12-12T03:33:26.659Z,99.99
2017-12-12T03:34:26.658Z,99.99
2017-12-12T03:35:26.698Z,99.99
2017-12-12T03:36:26.715Z,99.99
2017-12-12T03:37:26.732Z,99.99
2017-12-12T03:38:26.730Z,99.99
2017-12-12T03:39:26.766Z,99.99
2017-12-12T03:40:41.445Z,99.99
2017-12-12T03:41:26.774Z,99.99
2017-12-12T03:42:26.794Z,99.99
2017-12-12T03:43:26.823Z,99.99
2017-12-12T03:44:26.829Z,99.99
2017-12-12T03:45:26.868Z,99.99
2017-12-12T03:46:26.890Z,99.99
2017-12-12T03:47:26.901Z,99.99
2017-12-12T03:48:26.900Z,99.99
2017-12-12T03:50:26.930Z,99.99
2017-12-12T03:51:26.978Z,99.99
2017-12-12T03:52:26.991Z,99.99
2017-12-12T03:54:27.004Z,99.99
2017-12-12T03:55:27.037Z,99.99
2017-12-12T03:56:27.048Z,99.99
2017-12-12T03:57:27.067Z,99.99
2017-12-12T03:58:27.089Z,99.99
2017-12-12T03:59:27.106Z,99.99
2017-12-12T04:00:27.109Z,99.99
2017-12-12T04:01:27.134Z,99.99
2017-12-12T04:02:27.163Z,99.99
2017-12-12T04:03:27.175Z,99.99
2017-12-12T04:04:27.209Z,99.99
2017-12-12T04:05:27.209Z,99.99
2017-12-12T04:06:27.215Z,99.99
2017-12-12T04:07:27.232Z,99.99
2017-12-12T04:09:27.266Z,99.99
2017-12-12T04:10:27.300Z,99.99
2017-12-12T04:11:27.295Z,99.99
2017-12-12T04:12:41.991Z,99.99
2017-12-12T04:13:27.335Z,99.99
2017-12-12T04:14:27.349Z,99.99
2017-12-12T04:15:27.384Z,99.99
2017-12-12T04:16:27.386Z,99.99
2017-12-12T04:17:27.425Z,99.99
2017-12-12T04:18:27.436Z,99.99
2017-12-12T04:19:27.433Z,99.99
2017-12-12T04:20:27.449Z,99.99
2017-12-12T04:21:27.480Z,99.99
2017-12-12T04:22:27.492Z,99.99
2017-12-12T04:23:27.531Z,99.99
2017-12-12T04:24:27.525Z,99.99
2017-12-12T04:25:27.555Z,99.99
2017-12-12T04:26:27.629Z,99.99
2017-12-12T04:27:27.596Z,99.99
2017-12-12T04:28:42.265Z,99.99
2017-12-12T04:29:27.637Z,99.99
2017-12-12T04:30:27.645Z,99.99
2017-12-12T04:31:27.662Z,99.99
2017-12-12T04:32:27.667Z,99.99
2017-12-12T04:33:27.699Z,99.99
2017-12-12T04:34:27.707Z,99.99
2017-12-12T04:35:27.723Z,99.99
2017-12-12T04:36:27.740Z,99.99
2017-12-12T04:37:27.760Z,99.99
2017-12-12T04:38:27.765Z,99.99
2017-12-12T04:39:27.784Z,99.99
2017-12-12T04:40:27.802Z,99.99
2017-12-12T04:41:27.821Z,99.99
2017-12-12T04:42:27.840Z,99.99
2017-12-12T04:43:27.873Z,99.99
2017-12-12T04:44:42.552Z,99.99
2017-12-12T04:45:27.644Z,99.99
2017-12-12T04:46:27.922Z,99.99
2017-12-12T04:47:27.929Z,99.99
2017-12-12T04:48:27.963Z,99.99
2017-12-12T04:49:27.957Z,99.99
2017-12-12T04:50:27.976Z,99.99
2017-12-12T04:51:27.994Z,99.99
2017-12-12T04:52:28.010Z,99.99
2017-12-12T04:53:28.037Z,99.99
2017-12-12T04:54:28.071Z,99.99
2017-12-12T04:55:28.057Z,99.99
2017-12-12T04:56:28.088Z,99.99
2017-12-12T04:57:28.123Z,99.99
2017-12-12T04:58:28.133Z,99.99
2017-12-12T04:59:27.890Z,99.99
2017-12-12T05:00:42.821Z,99.99
2017-12-12T05:01:28.190Z,99.99
2017-12-12T05:02:28.200Z,99.99
2017-12-12T05:03:28.211Z,99.99
2017-12-12T05:04:28.248Z,99.99
2017-12-12T05:05:28.242Z,99.99
2017-12-12T05:06:28.283Z,99.99
2017-12-12T05:07:28.285Z,99.99
2017-12-12T05:08:28.297Z,99.99
2017-12-12T05:09:28.314Z,99.99
2017-12-12T05:10:28.326Z,99.99
2017-12-12T05:11:28.346Z,99.99
2017-12-12T05:12:28.353Z,99.99
2017-12-12T05:13:28.393Z,99.99
2017-12-12T05:14:28.402Z,99.99
2017-12-12T05:15:43.092Z,99.99
2017-12-12T05:16:28.436Z,99.99
2017-12-12T05:17:28.454Z,99.99
2017-12-12T05:18:28.484Z,99.99
2017-12-12T05:19:28.492Z,99.99
2017-12-12T05:20:28.533Z,99.99
2017-12-12T05:21:28.515Z,99.99
2017-12-12T05:22:28.551Z,99.99
2017-12-12T05:23:28.548Z,99.99
2017-12-12T05:25:28.615Z,99.99
2017-12-12T05:26:28.607Z,99.99
2017-12-12T05:27:28.645Z,99.99
2017-12-12T05:28:28.658Z,99.99
2017-12-12T05:30:28.692Z,99.99
2017-12-12T05:31:28.714Z,99.99
2017-12-12T05:32:28.717Z,99.99
2017-12-12T05:33:28.730Z,99.99
2017-12-12T05:34:28.496Z,99.99
2017-12-12T05:35:28.765Z,99.99
2017-12-12T05:36:28.795Z,99.99
2017-12-12T05:38:28.811Z,99.99
2017-12-12T05:39:28.835Z,99.99
2017-12-12T05:40:28.849Z,99.99
2017-12-12T05:41:28.869Z,99.99
2017-12-12T05:42:28.912Z,99.99
2017-12-12T05:43:28.918Z,99.99
2017-12-12T05:44:28.933Z,99.99
2017-12-12T05:45:28.962Z,99.99
2017-12-12T05:46:28.962Z,99.99
2017-12-12T05:47:43.647Z,99.99
2017-12-12T05:48:29.003Z,99.99
2017-12-12T05:49:29.024Z,99.99
2017-12-12T05:50:29.035Z,99.99
2017-12-12T05:51:29.067Z,99.99
2017-12-12T05:52:28.822Z,99.99
2017-12-12T05:53:29.086Z,99.99
2017-12-12T05:54:29.122Z,99.99
2017-12-12T05:55:29.138Z,99.99
2017-12-12T05:56:28.901Z,99.99
2017-12-12T05:57:29.146Z,99.99
2017-12-12T05:58:29.176Z,99.99
2017-12-12T05:59:29.189Z,99.99
2017-12-12T06:00:29.221Z,99.99
2017-12-12T06:01:28.984Z,99.99
2017-12-12T06:02:29.252Z,99.99
2017-12-12T06:03:43.935Z,99.99
2017-12-12T06:04:29.279Z,99.99
2017-12-12T06:05:29.289Z,99.99
2017-12-12T06:06:29.319Z,99.99
2017-12-12T06:07:29.341Z,99.99
2017-12-12T06:08:29.341Z,99.99
2017-12-12T06:09:29.390Z,99.99
2017-12-12T06:10:29.376Z,99.99
2017-12-12T06:11:29.425Z,99.99
2017-12-12T06:13:29.448Z,99.99
2017-12-12T06:14:29.524Z,99.99
2017-12-12T06:15:29.474Z,99.99
2017-12-12T06:16:29.584Z,99.99
2017-12-12T06:17:29.538Z,99.99
2017-12-12T06:18:29.535Z,99.99
2017-12-12T06:19:44.210Z,99.99
2017-12-12T06:20:29.554Z,99.99
2017-12-12T06:21:29.589Z,99.99
2017-12-12T06:22:29.339Z,99.99
2017-12-12T06:23:29.606Z,99.99
2017-12-12T06:24:29.636Z,99.99
2017-12-12T06:25:29.664Z,99.99
2017-12-12T06:26:29.689Z,99.99
2017-12-12T06:27:29.705Z,99.99
2017-12-12T06:28:29.445Z,99.99
2017-12-12T06:29:29.738Z,99.99
2017-12-12T06:30:29.798Z,99.99
2017-12-12T06:31:29.749Z,99.99
2017-12-12T06:32:29.791Z,99.99
2017-12-12T06:33:29.820Z,99.99
2017-12-12T06:34:29.828Z,99.99
2017-12-12T06:35:44.499Z,99.99
2017-12-12T06:36:29.860Z,99.99
2017-12-12T06:37:29.877Z,99.99
2017-12-12T06:38:29.867Z,99.99
2017-12-12T06:39:29.912Z,99.99
2017-12-12T06:40:29.915Z,99.84
2017-12-12T06:41:29.949Z,99.99
2017-12-12T06:42:29.972Z,99.99
2017-12-12T06:43:29.992Z,99.99
2017-12-12T06:45:30.044Z,99.74
2017-12-12T06:46:30.026Z,99.93
2017-12-12T06:47:30.060Z,99.99
2017-12-12T06:48:30.060Z,99.64
2017-12-12T06:49:30.068Z,99.36
2017-12-12T06:50:44.770Z,99.36
2017-12-12T06:51:29.851Z,99.55
2017-12-12T06:52:30.118Z,99.64
2017-12-12T06:53:30.146Z,99.26
2017-12-12T06:54:30.162Z,99.26
2017-12-12T06:55:30.179Z,99.45
2017-12-12T06:56:30.211Z,99.26
2017-12-12T06:57:30.216Z,99.36
2017-12-12T06:58:30.253Z,99.64
2017-12-12T06:59:30.248Z,99.16
2017-12-12T07:00:30.268Z,99.45
2017-12-12T07:01:30.044Z,99.07
2017-12-12T07:02:30.323Z,98.97
2017-12-12T07:03:30.334Z,98.69
2017-12-12T07:04:30.100Z,99.07
2017-12-12T07:05:30.111Z,98.6
2017-12-12T07:06:30.394Z,98.79
2017-12-12T07:07:30.409Z,99.07
2017-12-12T07:08:30.166Z,99.26
2017-12-12T07:09:30.457Z,98.79
2017-12-12T07:10:30.443Z,98.88
2017-12-12T07:12:30.480Z,98.12
2017-12-12T07:13:30.527Z,97.83
2017-12-12T07:14:30.524Z,97.93
2017-12-12T07:15:30.556Z,97.83
2017-12-12T07:16:30.559Z,97.88
2017-12-12T07:17:30.584Z,97.93
2017-12-12T07:18:30.590Z,97.83
2017-12-12T07:19:30.608Z,97.88
2017-12-12T07:20:30.639Z,97.83
2017-12-12T07:21:30.647Z,97.97
2017-12-12T07:22:45.333Z,97.74
2017-12-12T07:23:30.693Z,97.5
2017-12-12T07:24:30.717Z,98.07
2017-12-12T07:25:30.703Z,98.07
2017-12-12T07:26:30.747Z,97.78
2017-12-12T07:27:30.738Z,97.5
2017-12-12T07:28:30.768Z,97.6
2017-12-12T07:29:30.808Z,97.69
2017-12-12T07:30:30.906Z,97.41
2017-12-12T07:32:30.838Z,97.31
2017-12-12T07:34:30.897Z,96.74
2017-12-12T07:36:30.923Z,97.03
2017-12-12T07:38:45.614Z,97.5
2017-12-12T07:39:30.972Z,96.98
2017-12-12T07:41:30.994Z,96.74
2017-12-12T07:42:31.031Z,96.55
2017-12-12T07:43:30.772Z,96.08
2017-12-12T07:44:31.042Z,96.36
2017-12-12T07:45:31.072Z,96.17
2017-12-12T07:46:31.102Z,95.98
2017-12-12T07:47:31.310Z,95.98
2017-12-12T07:48:31.127Z,96.08
2017-12-12T07:49:31.139Z,95.6
2017-12-12T07:50:31.157Z,96.36
2017-12-12T07:51:30.926Z,95.75
2017-12-12T07:52:31.207Z,95.98
2017-12-12T07:53:31.214Z,95.79
2017-12-12T07:54:45.926Z,95.32
2017-12-12T07:55:31.020Z,95.51
2017-12-12T07:56:31.293Z,95.12
2017-12-12T07:58:31.298Z,95.7
2017-12-12T07:59:31.320Z,95.41
2017-12-12T08:01:31.341Z,95.79
2017-12-12T08:02:31.372Z,96.08
2017-12-12T08:03:31.402Z,95.51
2017-12-12T08:04:31.388Z,95.32
2017-12-12T08:05:31.442Z,95.12
2017-12-12T08:06:31.447Z,95.6
2017-12-12T08:07:31.475Z,95.12
2017-12-12T08:08:31.472Z,95.22
2017-12-12T08:09:31.240Z,95.51
2017-12-12T08:10:46.183Z,95.32
2017-12-12T08:11:31.514Z,95.03
2017-12-12T08:12:31.544Z,94.65
2017-12-12T08:13:31.579Z,94.84
2017-12-12T08:14:31.628Z,94.46
2017-12-12T08:15:31.597Z,94.74
2017-12-12T08:16:31.615Z,94.65
2017-12-12T08:17:31.647Z,94.46
2017-12-12T08:18:31.651Z,94.74
2017-12-12T08:19:31.661Z,94.27
2017-12-12T08:20:31.694Z,94.56
2017-12-12T08:21:31.818Z,93.79
2017-12-12T08:23:31.752Z,94.56
2017-12-12T08:24:31.772Z,93.89
2017-12-12T08:25:46.442Z,93.99
2017-12-12T08:26:31.883Z,93.99
2017-12-12T08:27:31.834Z,94.08
2017-12-12T08:28:31.840Z,94.18
2017-12-12T08:29:31.859Z,94.18
2017-12-12T08:30:31.852Z,94.18
2017-12-12T08:32:31.918Z,93.89
2017-12-12T08:33:31.918Z,94.18
2017-12-12T08:34:31.939Z,94.18
2017-12-12T08:35:31.996Z,94.84
2017-12-12T08:36:35.130Z,94.46
2017-12-12T08:37:31.975Z,95.03
2017-12-12T08:38:32.232Z,95.03
2017-12-12T08:39:32.031Z,95.98
2017-12-12T08:40:32.041Z,95.94
2017-12-12T08:41:32.070Z,96.6
2017-12-12T08:42:31.810Z,96.03
2017-12-12T08:45:32.135Z,94.79
2017-12-12T08:46:32.137Z,94.79
2017-12-12T08:47:32.160Z,94.6
2017-12-12T08:48:32.188Z,94.98
2017-12-12T08:49:32.191Z,95.31
2017-12-12T08:50:32.225Z,95.75
2017-12-12T08:51:32.232Z,95.27
2017-12-12T08:52:32.240Z,94.89
2017-12-12T08:53:32.251Z,94.46
2017-12-12T08:54:32.272Z,94.18
2017-12-12T08:55:32.310Z,94.56
2017-12-12T08:56:32.313Z,93.89
2017-12-12T08:57:47.001Z,93.13
2017-12-12T08:58:32.343Z,93.6
2017-12-12T08:59:32.377Z,93.32
2017-12-12T09:00:32.372Z,92.18
2017-12-12T09:01:32.402Z,93.7
2017-12-12T09:02:32.445Z,94.37
2017-12-12T09:03:32.483Z,94.37
2017-12-12T09:04:32.474Z,94.18
2017-12-12T09:05:32.463Z,93.6
2017-12-12T09:06:32.496Z,93.7
2017-12-12T09:07:32.519Z,94.08
2017-12-12T09:08:32.536Z,94.18
2017-12-12T09:10:32.563Z,94.42
2017-12-12T09:11:32.563Z,94.79
2017-12-12T09:12:32.606Z,94.51
2017-12-12T09:13:47.275Z,94.42
2017-12-12T09:14:32.639Z,94.23
2017-12-12T09:15:32.631Z,93.99
2017-12-12T09:16:32.648Z,93.46
2017-12-12T09:17:32.693Z,93.56
2017-12-12T09:18:32.704Z,92.99
2017-12-12T09:19:32.722Z,92.9
2017-12-12T09:20:32.730Z,92.9
2017-12-12T09:21:32.751Z,93.27
2017-12-12T09:22:32.754Z,92.71
2017-12-12T09:23:32.775Z,93.08
2017-12-12T09:24:32.873Z,92.61
2017-12-12T09:25:32.801Z,92.42
2017-12-12T09:26:32.566Z,91.85
2017-12-12T09:28:32.877Z,92.14
2017-12-12T09:29:47.549Z,92.23
2017-12-12T09:30:32.878Z,92.61
2017-12-12T09:31:32.915Z,93.27
2017-12-12T09:32:32.930Z,93.37
2017-12-12T09:33:32.950Z,93.27
2017-12-12T09:34:32.954Z,92.14
2017-12-12T09:35:32.963Z,92.71
2017-12-12T09:36:32.749Z,92.61
2017-12-12T09:37:32.999Z,92.9
2017-12-12T09:38:32.790Z,92.52
2017-12-12T09:39:33.055Z,92.61
2017-12-12T09:40:33.094Z,93.27
2017-12-12T09:41:33.073Z,92.42
2017-12-12T09:42:33.079Z,92.71
2017-12-12T09:43:33.117Z,92.9
2017-12-12T09:44:33.129Z,92.9
2017-12-12T09:45:47.809Z,93.08
2017-12-12T09:46:33.144Z,93.37
2017-12-12T09:47:33.181Z,93.08
2017-12-12T09:48:33.178Z,93.37
2017-12-12T09:49:33.201Z,93.18
2017-12-12T09:50:33.210Z,93.27
2017-12-12T09:51:33.254Z,93.56
2017-12-12T09:52:33.260Z,93.27
2017-12-12T09:53:33.263Z,93.27
2017-12-12T09:54:33.309Z,92.99
2017-12-12T09:55:33.299Z,92.71
2017-12-12T09:56:33.307Z,93.18
2017-12-12T09:57:33.091Z,92.9
2017-12-12T09:58:33.357Z,92.52
2017-12-12T09:59:33.381Z,92.99
2017-12-12T10:00:48.052Z,92.9
2017-12-12T10:01:33.412Z,92.42
2017-12-12T10:02:33.418Z,92.61
2017-12-12T10:03:33.458Z,92.33
2017-12-12T10:04:33.211Z,92.42
2017-12-12T10:05:33.455Z,92.61
2017-12-12T10:06:33.512Z,92.8
2017-12-12T10:07:33.612Z,92.33
2017-12-12T10:08:33.510Z,93.37
2017-12-12T10:09:33.529Z,94.13
2017-12-12T10:10:33.539Z,93.8
2017-12-12T10:11:33.563Z,94.32
2017-12-12T10:12:33.596Z,94.27
2017-12-12T10:14:33.608Z,94.74
2017-12-12T10:15:33.373Z,94.79
2017-12-12T10:16:33.665Z,95.07
2017-12-12T10:17:33.649Z,94.98
2017-12-12T10:18:33.723Z,94.7
2017-12-12T10:19:33.704Z,95.5
2017-12-12T10:20:33.697Z,96.55
2017-12-12T10:21:33.717Z,96.83
2017-12-12T10:22:33.756Z,96.73
2017-12-12T10:23:33.772Z,96.73
2017-12-12T10:24:33.787Z,97.21
2017-12-12T10:25:33.797Z,97.69
2017-12-12T10:26:33.823Z,97.69
2017-12-12T10:27:33.836Z,97.21
2017-12-12T10:28:33.852Z,97.31
2017-12-12T10:29:33.878Z,97.97
2017-12-12T10:30:33.880Z,97.5
2017-12-12T10:31:33.624Z,97.5
2017-12-12T10:32:48.574Z,97.78
2017-12-12T10:33:33.907Z,97.4
2017-12-12T10:34:33.928Z,98.35
2017-12-12T10:35:33.963Z,97.97
2017-12-12T10:37:33.976Z,98.44
2017-12-12T10:38:34.012Z,98.35
2017-12-12T10:39:34.012Z,98.4
2017-12-12T10:40:34.038Z,97.69
2017-12-12T10:41:34.066Z,97.97
2017-12-12T10:42:34.080Z,98.25
2017-12-12T10:43:34.153Z,97.78
2017-12-12T10:44:34.091Z,98.25
2017-12-12T10:45:34.109Z,98.44
2017-12-12T10:46:34.145Z,98.54
2017-12-12T10:47:34.149Z,99.11
2017-12-12T10:48:48.827Z,99.11
2017-12-12T10:49:34.187Z,99.11
2017-12-12T10:50:33.947Z,98.82
2017-12-12T10:51:33.964Z,98.63
2017-12-12T10:52:34.235Z,98.82
2017-12-12T10:53:34.253Z,98.82
2017-12-12T10:54:34.255Z,98.92
2017-12-12T10:55:34.035Z,98.73
2017-12-12T10:56:34.279Z,98.73
2017-12-12T10:57:34.064Z,98.07
2017-12-12T10:58:34.323Z,98.35
2017-12-12T10:59:34.333Z,98.25
2017-12-12T11:00:34.119Z,97.69
2017-12-12T11:01:34.360Z,98.35
2017-12-12T11:02:34.385Z,98.25
2017-12-12T11:03:34.395Z,98.25
2017-12-12T11:04:49.090Z,98.54
2017-12-12T11:05:34.190Z,98.25
2017-12-12T11:06:34.195Z,98.07
2017-12-12T11:07:34.462Z,98.25
2017-12-12T11:08:34.489Z,98.82
2017-12-12T11:09:34.491Z,98.44
2017-12-12T11:10:34.531Z,97.97
2017-12-12T11:11:34.527Z,98.63
2017-12-12T11:12:34.561Z,98.25
2017-12-12T11:13:34.549Z,98.07
2017-12-12T11:14:34.593Z,98.82
2017-12-12T11:15:34.607Z,98.54
2017-12-12T11:16:34.604Z,98.44
2017-12-12T11:17:34.620Z,97.88
2017-12-12T11:18:34.656Z,98.63
2017-12-12T11:19:34.649Z,98.44
2017-12-12T11:20:49.349Z,99.11
2017-12-12T11:21:34.696Z,98.82
2017-12-12T11:22:34.715Z,98.82
2017-12-12T11:23:34.739Z,98.63
2017-12-12T11:24:34.735Z,98.82
2017-12-12T11:25:34.755Z,99.39
2017-12-12T11:26:34.785Z,99.68
2017-12-12T11:27:34.778Z,99.49
2017-12-12T11:28:34.792Z,99.2
2017-12-12T11:29:34.832Z,99.3
2017-12-12T11:30:34.580Z,99.2
2017-12-12T11:31:34.862Z,99.39
2017-12-12T11:32:34.880Z,99.11
2017-12-12T11:33:34.626Z,99.87
2017-12-12T11:34:34.888Z,99.49
2017-12-12T11:35:49.586Z,99.49
2017-12-12T11:36:34.946Z,99.87
2017-12-12T11:37:34.948Z,99.58
2017-12-12T11:38:34.946Z,99.99
2017-12-12T11:39:34.992Z,99.99
2017-12-12T11:40:35.015Z,99.96
2017-12-12T11:41:35.016Z,99.68
2017-12-12T11:42:35.040Z,99.99
2017-12-12T11:43:35.037Z,99.99
2017-12-12T11:44:35.076Z,99.58
2017-12-12T11:45:35.066Z,99.49
2017-12-12T11:46:35.112Z,99.58
2017-12-12T11:47:35.099Z,99.77
2017-12-12T11:48:35.139Z,99.49
2017-12-12T11:49:35.149Z,99.39
2017-12-12T11:50:35.141Z,99.49
2017-12-12T11:51:35.167Z,99.11
2017-12-12T11:52:35.178Z,99.39
2017-12-12T11:53:35.211Z,99.68
2017-12-12T11:54:35.214Z,99.01
2017-12-12T11:55:35.224Z,98.73
2017-12-12T11:56:35.255Z,98.82
2017-12-12T11:57:35.267Z,98.92
2017-12-12T11:58:35.273Z,98.82
2017-12-12T11:59:35.295Z,98.63
2017-12-12T12:00:35.324Z,98.73
2017-12-12T12:01:35.342Z,98.25
2017-12-12T12:02:35.357Z,98.82
2017-12-12T12:03:35.372Z,98.16
2017-12-12T12:04:35.130Z,98.63
2017-12-12T12:05:35.386Z,98.63
2017-12-12T12:06:35.422Z,98.73
2017-12-12T12:07:50.093Z,98.07
2017-12-12T12:08:35.456Z,97.59
2017-12-12T12:09:35.454Z,97.97
2017-12-12T12:11:35.495Z,97.21
2017-12-12T12:12:35.525Z,97.21
2017-12-12T12:13:35.511Z,97.5
2017-12-12T12:14:35.522Z,97.78
2017-12-12T12:16:35.567Z,97.5
2017-12-12T12:17:35.581Z,97.12
2017-12-12T12:18:35.584Z,97.12
2017-12-12T12:20:35.639Z,97.12
2017-12-12T12:21:35.639Z,97.59
2017-12-12T12:22:35.680Z,96.92
2017-12-12T12:23:50.347Z,97.31
2017-12-12T12:24:35.710Z,97.12
2017-12-12T12:25:35.700Z,97.02
2017-12-12T12:26:35.717Z,96.83
2017-12-12T12:27:35.756Z,96.92
2017-12-12T12:28:35.764Z,96.64
2017-12-12T12:29:35.786Z,96.36
2017-12-12T12:30:35.780Z,96.92
2017-12-12T12:31:35.794Z,96.83
2017-12-12T12:32:35.814Z,96.73
2017-12-12T12:33:35.844Z,96.45
2017-12-12T12:34:35.850Z,96.55
2017-12-12T12:35:35.864Z,96.5
2017-12-12T12:36:35.627Z,96.03
2017-12-12T12:37:35.909Z,96.12
2017-12-12T12:38:35.931Z,95.93
2017-12-12T12:39:50.598Z,95.07
2017-12-12T12:40:35.944Z,95.46
2017-12-12T12:41:35.970Z,95.36
2017-12-12T12:42:35.971Z,95.36
2017-12-12T12:43:36.005Z,94.89
2017-12-12T12:44:36.016Z,95.36
2017-12-12T12:45:36.047Z,94.79
2017-12-12T12:46:36.031Z,94.98
2017-12-12T12:47:36.076Z,94.89
2017-12-12T12:48:36.091Z,95.17
2017-12-12T12:49:36.079Z,94.51
2017-12-12T12:50:36.106Z,94.79
2017-12-12T12:51:36.131Z,94.79
2017-12-12T12:52:36.148Z,94.6
2017-12-12T12:53:36.171Z,94.6
2017-12-12T12:54:36.176Z,94.98
2017-12-12T12:55:50.858Z,95.17
2017-12-12T12:56:36.213Z,94.42
2017-12-12T12:57:36.215Z,94.23
2017-12-12T12:59:36.244Z,94.6
2017-12-12T13:00:36.289Z,94.89
2017-12-12T13:01:36.280Z,94.6
2017-12-12T13:02:36.316Z,94.03
2017-12-12T13:03:36.330Z,94.42
2017-12-12T13:04:36.326Z,94.6
2017-12-12T13:05:36.336Z,94.32
2017-12-12T13:06:36.372Z,94.51
2017-12-12T13:07:36.385Z,94.23
2017-12-12T13:08:36.406Z,94.13
2017-12-12T13:09:36.420Z,94.03
2017-12-12T13:10:51.096Z,94.42
2017-12-12T13:11:36.457Z,93.84
2017-12-12T13:12:36.469Z,94.03
2017-12-12T13:13:36.493Z,93.27
2017-12-12T13:14:36.500Z,93.94
2017-12-12T13:15:36.496Z,94.03
2017-12-12T13:16:36.535Z,94.13
2017-12-12T13:17:36.524Z,93.94
2017-12-12T13:18:36.548Z,93.46
2017-12-12T13:19:36.595Z,93.37
2017-12-12T13:20:36.577Z,93.75
2017-12-12T13:21:36.601Z,93.37
2017-12-12T13:22:36.358Z,93.18
2017-12-12T13:23:36.652Z,93.18
2017-12-12T13:24:36.669Z,93.94
2017-12-12T13:25:36.662Z,94.23
2017-12-12T13:26:36.706Z,94.13
2017-12-12T13:27:36.718Z,94.32
2017-12-12T13:28:36.707Z,93.94
2017-12-12T13:29:36.743Z,93.84
2017-12-12T13:30:36.751Z,93.75
2017-12-12T13:31:36.775Z,93.75
2017-12-12T13:32:36.777Z,93.75
2017-12-12T13:33:36.789Z,93.56
2017-12-12T13:34:36.835Z,93.94